sensor_id;sensor_type;location;lat;lon;timestamp;temperature;humidity
5556;DHT22;2801;50.972;7.856;2024-02-16T00:02:03;8.90;99.90
5556;DHT22;2801;50.972;7.856;2024-02-16T00:04:30;8.80;99.90
5556;DHT22;2801;50.972;7.856;2024-02-16T00:06:57;8.80;99.90
5556;DHT22;2801;50.972;7.856;2024-02-16T00:09:25;8.70;99.90
5556;DHT22;2801;50.972;7.856;2024-02-16T00:11:52;8.60;99.90
5556;DHT22;2801;50.972;7.856;2024-02-16T00:14:19;8.50;99.90
5556;DHT22;2801;50.972;7.856;2024-02-16T00:16:47;8.50;99.90
5556;DHT22;2801;50.972;7.856;2024-02-16T00:19:14;8.50;99.90
5556;DHT22;2801;50.972;7.856;2024-02-16T00:21:42;8.50;99.90
5556;DHT22;2801;50.972;7.856;2024-02-16T00:24:10;8.60;99.90
5556;DHT22;2801;50.972;7.856;2024-02-16T00:26:37;8.60;99.90
5556;DHT22;2801;50.972;7.856;2024-02-16T00:29:07;8.50;99.90
5556;DHT22;2801;50.972;7.856;2024-02-16T00:31:33;8.60;99.90
5556;DHT22;2801;50.972;7.856;2024-02-16T00:34:00;8.60;99.90
5556;DHT22;2801;50.972;7.856;2024-02-16T00:36:28;8.70;99.90
5556;DHT22;2801;50.972;7.856;2024-02-16T00:38:57;8.70;99.90
5556;DHT22;2801;50.972;7.856;2024-02-16T00:41:25;8.70;99.90
5556;DHT22;2801;50.972;7.856;2024-02-16T00:43:52;8.80;99.90
5556;DHT22;2801;50.972;7.856;2024-02-16T00:46:19;8.80;99.90
5556;DHT22;2801;50.972;7.856;2024-02-16T00:48:50;8.90;99.90
5556;DHT22;2801;50.972;7.856;2024-02-16T00:51:18;8.90;99.90
5556;DHT22;2801;50.972;7.856;2024-02-16T00:53:46;8.90;99.90
5556;DHT22;2801;50.972;7.856;2024-02-16T00:56:13;8.90;99.90
5556;DHT22;2801;50.972;7.856;2024-02-16T00:58:40;8.90;99.90
5556;DHT22;2801;50.972;7.856;2024-02-16T01:01:09;8.90;99.90
5556;DHT22;2801;50.972;7.856;2024-02-16T01:03:39;8.90;99.90
5556;DHT22;2801;50.972;7.856;2024-02-16T01:06:06;8.90;99.90
5556;DHT22;2801;50.972;7.856;2024-02-16T01:08:35;9.00;99.90
5556;DHT22;2801;50.972;7.856;2024-02-16T01:11:03;9.00;99.90
5556;DHT22;2801;50.972;7.856;2024-02-16T01:13:30;9.00;99.90
5556;DHT22;2801;50.972;7.856;2024-02-16T01:15:57;9.00;99.90
5556;DHT22;2801;50.972;7.856;2024-02-16T01:18:24;9.00;99.90
5556;DHT22;2801;50.972;7.856;2024-02-16T01:20:53;9.00;99.90
5556;DHT22;2801;50.972;7.856;2024-02-16T01:23:23;9.00;99.90
5556;DHT22;2801;50.972;7.856;2024-02-16T01:25:50;9.00;99.90
5556;DHT22;2801;50.972;7.856;2024-02-16T01:28:17;9.00;99.90
5556;DHT22;2801;50.972;7.856;2024-02-16T01:30:44;9.00;99.90
5556;DHT22;2801;50.972;7.856;2024-02-16T01:33:11;8.90;99.90
5556;DHT22;2801;50.972;7.856;2024-02-16T01:35:39;8.90;99.90
5556;DHT22;2801;50.972;7.856;2024-02-16T01:38:06;8.90;99.90
5556;DHT22;2801;50.972;7.856;2024-02-16T01:40:33;8.80;99.90
5556;DHT22;2801;50.972;7.856;2024-02-16T01:43:00;8.80;99.90
5556;DHT22;2801;50.972;7.856;2024-02-16T01:45:27;8.70;99.90
5556;DHT22;2801;50.972;7.856;2024-02-16T01:47:54;8.70;99.90
5556;DHT22;2801;50.972;7.856;2024-02-16T01:50:22;8.60;99.90
5556;DHT22;2801;50.972;7.856;2024-02-16T01:52:50;8.60;99.90
5556;DHT22;2801;50.972;7.856;2024-02-16T01:55:17;8.60;99.90
5556;DHT22;2801;50.972;7.856;2024-02-16T01:57:48;8.50;99.90
5556;DHT22;2801;50.972;7.856;2024-02-16T02:00:15;8.50;99.90
5556;DHT22;2801;50.972;7.856;2024-02-16T02:02:45;8.50;99.90
5556;DHT22;2801;50.972;7.856;2024-02-16T02:05:13;8.50;99.90
5556;DHT22;2801;50.972;7.856;2024-02-16T02:07:42;8.50;99.90
5556;DHT22;2801;50.972;7.856;2024-02-16T02:10:10;8.50;99.90
5556;DHT22;2801;50.972;7.856;2024-02-16T02:12:42;8.50;99.90
5556;DHT22;2801;50.972;7.856;2024-02-16T02:15:09;8.50;99.90
5556;DHT22;2801;50.972;7.856;2024-02-16T02:17:37;8.50;99.90
5556;DHT22;2801;50.972;7.856;2024-02-16T02:20:05;8.60;99.90
5556;DHT22;2801;50.972;7.856;2024-02-16T02:22:38;8.60;99.90
5556;DHT22;2801;50.972;7.856;2024-02-16T02:25:05;8.60;99.90
5556;DHT22;2801;50.972;7.856;2024-02-16T02:27:32;8.60;99.90
5556;DHT22;2801;50.972;7.856;2024-02-16T02:29:59;8.60;99.90
5556;DHT22;2801;50.972;7.856;2024-02-16T02:32:27;8.60;99.90
5556;DHT22;2801;50.972;7.856;2024-02-16T02:34:55;8.70;99.90
5556;DHT22;2801;50.972;7.856;2024-02-16T02:37:22;8.60;99.90
5556;DHT22;2801;50.972;7.856;2024-02-16T02:39:49;8.60;99.90
5556;DHT22;2801;50.972;7.856;2024-02-16T02:42:16;8.60;99.90
5556;DHT22;2801;50.972;7.856;2024-02-16T02:44:43;8.60;99.90
5556;DHT22;2801;50.972;7.856;2024-02-16T02:47:16;8.70;99.90
5556;DHT22;2801;50.972;7.856;2024-02-16T02:49:44;8.70;99.90
5556;DHT22;2801;50.972;7.856;2024-02-16T02:52:11;8.90;99.90
5556;DHT22;2801;50.972;7.856;2024-02-16T02:54:38;8.80;99.90
5556;DHT22;2801;50.972;7.856;2024-02-16T02:57:05;8.90;99.90
5556;DHT22;2801;50.972;7.856;2024-02-16T02:59:33;8.90;99.90
5556;DHT22;2801;50.972;7.856;2024-02-16T03:02:00;8.90;99.90
5556;DHT22;2801;50.972;7.856;2024-02-16T03:04:27;9.00;99.90
5556;DHT22;2801;50.972;7.856;2024-02-16T03:06:54;9.00;99.90
5556;DHT22;2801;50.972;7.856;2024-02-16T03:09:22;9.00;99.90
5556;DHT22;2801;50.972;7.856;2024-02-16T03:11:49;9.00;99.90
5556;DHT22;2801;50.972;7.856;2024-02-16T03:14:17;9.10;99.90
5556;DHT22;2801;50.972;7.856;2024-02-16T03:16:44;9.10;99.90
5556;DHT22;2801;50.972;7.856;2024-02-16T03:19:11;9.10;99.90
5556;DHT22;2801;50.972;7.856;2024-02-16T03:21:38;9.10;99.90
5556;DHT22;2801;50.972;7.856;2024-02-16T03:24:05;9.10;99.90
5556;DHT22;2801;50.972;7.856;2024-02-16T03:26:33;9.10;99.90
5556;DHT22;2801;50.972;7.856;2024-02-16T03:29:00;9.10;99.90
5556;DHT22;2801;50.972;7.856;2024-02-16T03:31:26;9.10;99.90
5556;DHT22;2801;50.972;7.856;2024-02-16T03:33:55;9.20;99.90
5556;DHT22;2801;50.972;7.856;2024-02-16T03:36:23;9.20;99.90
5556;DHT22;2801;50.972;7.856;2024-02-16T03:38:51;9.30;99.90
5556;DHT22;2801;50.972;7.856;2024-02-16T03:41:22;9.30;99.90
5556;DHT22;2801;50.972;7.856;2024-02-16T03:43:50;9.10;99.90
5556;DHT22;2801;50.972;7.856;2024-02-16T03:46:18;9.10;99.90
5556;DHT22;2801;50.972;7.856;2024-02-16T03:48:45;9.10;99.90
5556;DHT22;2801;50.972;7.856;2024-02-16T03:51:12;9.10;99.90
5556;DHT22;2801;50.972;7.856;2024-02-16T03:53:39;9.10;99.90
5556;DHT22;2801;50.972;7.856;2024-02-16T03:56:06;9.10;99.90
5556;DHT22;2801;50.972;7.856;2024-02-16T03:58:36;9.10;99.90
5556;DHT22;2801;50.972;7.856;2024-02-16T04:01:04;9.10;99.90
5556;DHT22;2801;50.972;7.856;2024-02-16T04:03:34;9.00;99.90
5556;DHT22;2801;50.972;7.856;2024-02-16T04:06:02;9.10;99.90
5556;DHT22;2801;50.972;7.856;2024-02-16T04:08:31;9.10;99.90
5556;DHT22;2801;50.972;7.856;2024-02-16T04:10:58;9.10;99.90
5556;DHT22;2801;50.972;7.856;2024-02-16T04:13:25;9.10;99.90
5556;DHT22;2801;50.972;7.856;2024-02-16T04:15:52;9.10;99.90
5556;DHT22;2801;50.972;7.856;2024-02-16T04:18:21;9.20;99.90
5556;DHT22;2801;50.972;7.856;2024-02-16T04:20:48;9.20;99.90
5556;DHT22;2801;50.972;7.856;2024-02-16T04:23:15;9.20;99.90
5556;DHT22;2801;50.972;7.856;2024-02-16T04:25:42;9.20;99.90
5556;DHT22;2801;50.972;7.856;2024-02-16T04:28:09;9.20;99.90
5556;DHT22;2801;50.972;7.856;2024-02-16T04:30:36;9.30;99.90
5556;DHT22;2801;50.972;7.856;2024-02-16T04:33:03;9.20;99.90
5556;DHT22;2801;50.972;7.856;2024-02-16T04:35:31;9.10;99.90
5556;DHT22;2801;50.972;7.856;2024-02-16T04:37:58;9.10;99.90
5556;DHT22;2801;50.972;7.856;2024-02-16T04:40:25;9.10;99.90
5556;DHT22;2801;50.972;7.856;2024-02-16T04:42:53;9.10;99.90
5556;DHT22;2801;50.972;7.856;2024-02-16T04:45:20;9.10;99.90
5556;DHT22;2801;50.972;7.856;2024-02-16T04:47:47;9.10;99.90
5556;DHT22;2801;50.972;7.856;2024-02-16T04:50:15;9.10;99.90
5556;DHT22;2801;50.972;7.856;2024-02-16T04:52:42;9.10;99.90
5556;DHT22;2801;50.972;7.856;2024-02-16T04:55:10;9.10;99.90
5556;DHT22;2801;50.972;7.856;2024-02-16T04:57:37;9.20;99.90
5556;DHT22;2801;50.972;7.856;2024-02-16T05:00:05;9.20;99.90
5556;DHT22;2801;50.972;7.856;2024-02-16T05:02:32;9.10;99.90
5556;DHT22;2801;50.972;7.856;2024-02-16T05:04:59;9.10;99.90
5556;DHT22;2801;50.972;7.856;2024-02-16T05:07:30;9.10;99.90
5556;DHT22;2801;50.972;7.856;2024-02-16T05:09:58;9.00;99.90
5556;DHT22;2801;50.972;7.856;2024-02-16T05:12:25;9.00;99.90
5556;DHT22;2801;50.972;7.856;2024-02-16T05:14:53;9.00;99.90
5556;DHT22;2801;50.972;7.856;2024-02-16T05:17:21;9.10;99.90
5556;DHT22;2801;50.972;7.856;2024-02-16T05:19:49;9.10;99.90
5556;DHT22;2801;50.972;7.856;2024-02-16T05:22:17;9.10;99.90
5556;DHT22;2801;50.972;7.856;2024-02-16T05:24:48;9.10;99.90
5556;DHT22;2801;50.972;7.856;2024-02-16T05:27:15;9.10;99.90
5556;DHT22;2801;50.972;7.856;2024-02-16T05:29:43;9.10;99.90
5556;DHT22;2801;50.972;7.856;2024-02-16T05:32:10;9.00;99.90
5556;DHT22;2801;50.972;7.856;2024-02-16T05:34:39;9.10;99.90
5556;DHT22;2801;50.972;7.856;2024-02-16T05:37:06;9.10;99.90
5556;DHT22;2801;50.972;7.856;2024-02-16T05:39:35;9.20;99.90
5556;DHT22;2801;50.972;7.856;2024-02-16T05:42:10;9.20;99.90
5556;DHT22;2801;50.972;7.856;2024-02-16T05:44:37;9.00;99.90
5556;DHT22;2801;50.972;7.856;2024-02-16T05:47:04;8.90;99.90
5556;DHT22;2801;50.972;7.856;2024-02-16T05:49:31;8.90;99.90
5556;DHT22;2801;50.972;7.856;2024-02-16T05:51:59;8.80;99.90
5556;DHT22;2801;50.972;7.856;2024-02-16T05:54:46;8.70;99.90
5556;DHT22;2801;50.972;7.856;2024-02-16T05:57:15;8.60;99.90
5556;DHT22;2801;50.972;7.856;2024-02-16T05:59:43;8.60;99.90
5556;DHT22;2801;50.972;7.856;2024-02-16T06:02:10;8.50;99.90
5556;DHT22;2801;50.972;7.856;2024-02-16T06:04:39;8.50;99.90
5556;DHT22;2801;50.972;7.856;2024-02-16T06:07:06;8.50;99.90
5556;DHT22;2801;50.972;7.856;2024-02-16T06:09:34;8.50;99.90
5556;DHT22;2801;50.972;7.856;2024-02-16T06:12:03;8.50;99.90
5556;DHT22;2801;50.972;7.856;2024-02-16T06:14:31;8.40;99.90
5556;DHT22;2801;50.972;7.856;2024-02-16T06:16:59;8.30;99.90
5556;DHT22;2801;50.972;7.856;2024-02-16T06:19:26;8.30;99.90
5556;DHT22;2801;50.972;7.856;2024-02-16T06:21:54;8.30;99.90
5556;DHT22;2801;50.972;7.856;2024-02-16T06:24:22;8.30;99.90
5556;DHT22;2801;50.972;7.856;2024-02-16T06:26:50;8.40;99.90
5556;DHT22;2801;50.972;7.856;2024-02-16T06:29:23;8.40;99.90
5556;DHT22;2801;50.972;7.856;2024-02-16T06:31:51;8.40;99.90
5556;DHT22;2801;50.972;7.856;2024-02-16T06:34:18;8.40;99.90
5556;DHT22;2801;50.972;7.856;2024-02-16T06:36:46;8.40;99.90
5556;DHT22;2801;50.972;7.856;2024-02-16T06:39:15;8.40;99.90
5556;DHT22;2801;50.972;7.856;2024-02-16T06:41:47;8.30;99.90
5556;DHT22;2801;50.972;7.856;2024-02-16T06:44:15;8.30;99.90
5556;DHT22;2801;50.972;7.856;2024-02-16T06:46:45;8.30;99.90
5556;DHT22;2801;50.972;7.856;2024-02-16T06:49:12;8.30;99.90
5556;DHT22;2801;50.972;7.856;2024-02-16T06:51:39;8.30;99.90
5556;DHT22;2801;50.972;7.856;2024-02-16T06:54:06;8.30;99.90
5556;DHT22;2801;50.972;7.856;2024-02-16T06:56:34;8.30;99.90
5556;DHT22;2801;50.972;7.856;2024-02-16T06:59:02;8.20;99.90
5556;DHT22;2801;50.972;7.856;2024-02-16T07:01:29;8.20;99.90
5556;DHT22;2801;50.972;7.856;2024-02-16T07:03:56;8.10;99.90
5556;DHT22;2801;50.972;7.856;2024-02-16T07:06:23;8.10;99.90
5556;DHT22;2801;50.972;7.856;2024-02-16T07:08:50;8.10;99.90
5556;DHT22;2801;50.972;7.856;2024-02-16T07:11:18;8.10;99.90
5556;DHT22;2801;50.972;7.856;2024-02-16T07:13:47;8.10;99.90
5556;DHT22;2801;50.972;7.856;2024-02-16T07:16:14;8.10;99.90
5556;DHT22;2801;50.972;7.856;2024-02-16T07:18:41;8.00;99.90
5556;DHT22;2801;50.972;7.856;2024-02-16T07:21:09;8.00;99.90
5556;DHT22;2801;50.972;7.856;2024-02-16T07:23:36;8.00;99.90
5556;DHT22;2801;50.972;7.856;2024-02-16T07:26:04;8.10;99.90
5556;DHT22;2801;50.972;7.856;2024-02-16T07:28:33;8.10;99.90
5556;DHT22;2801;50.972;7.856;2024-02-16T07:31:01;8.10;99.90
5556;DHT22;2801;50.972;7.856;2024-02-16T07:33:28;8.10;99.90
5556;DHT22;2801;50.972;7.856;2024-02-16T07:35:56;8.20;99.90
5556;DHT22;2801;50.972;7.856;2024-02-16T07:38:23;8.30;99.90
5556;DHT22;2801;50.972;7.856;2024-02-16T07:40:50;8.40;99.90
5556;DHT22;2801;50.972;7.856;2024-02-16T07:43:17;8.50;99.90
5556;DHT22;2801;50.972;7.856;2024-02-16T07:45:45;8.60;99.90
5556;DHT22;2801;50.972;7.856;2024-02-16T07:48:13;8.70;99.90
5556;DHT22;2801;50.972;7.856;2024-02-16T07:50:41;8.80;99.90
5556;DHT22;2801;50.972;7.856;2024-02-16T07:53:08;9.00;99.90
5556;DHT22;2801;50.972;7.856;2024-02-16T07:55:37;9.10;99.90
5556;DHT22;2801;50.972;7.856;2024-02-16T07:58:04;9.40;99.90
5556;DHT22;2801;50.972;7.856;2024-02-16T08:00:32;9.40;99.90
5556;DHT22;2801;50.972;7.856;2024-02-16T08:02:59;9.50;99.90
5556;DHT22;2801;50.972;7.856;2024-02-16T08:05:26;9.60;99.90
5556;DHT22;2801;50.972;7.856;2024-02-16T08:07:54;9.80;99.90
5556;DHT22;2801;50.972;7.856;2024-02-16T08:10:22;9.80;99.90
5556;DHT22;2801;50.972;7.856;2024-02-16T08:12:49;9.90;99.90
5556;DHT22;2801;50.972;7.856;2024-02-16T08:15:17;10.20;99.90
5556;DHT22;2801;50.972;7.856;2024-02-16T08:17:50;10.20;99.90
5556;DHT22;2801;50.972;7.856;2024-02-16T08:20:19;10.30;99.90
5556;DHT22;2801;50.972;7.856;2024-02-16T08:22:47;10.40;99.90
5556;DHT22;2801;50.972;7.856;2024-02-16T08:25:14;10.60;99.90
5556;DHT22;2801;50.972;7.856;2024-02-16T08:27:41;10.70;99.90
5556;DHT22;2801;50.972;7.856;2024-02-16T08:30:08;10.80;99.90
5556;DHT22;2801;50.972;7.856;2024-02-16T08:32:36;10.90;99.90
5556;DHT22;2801;50.972;7.856;2024-02-16T08:35:04;11.00;99.90
5556;DHT22;2801;50.972;7.856;2024-02-16T08:37:31;11.10;99.90
5556;DHT22;2801;50.972;7.856;2024-02-16T08:40:00;11.20;99.90
5556;DHT22;2801;50.972;7.856;2024-02-16T08:42:28;11.30;99.90
5556;DHT22;2801;50.972;7.856;2024-02-16T08:44:55;11.40;99.90
5556;DHT22;2801;50.972;7.856;2024-02-16T08:47:22;11.60;99.90
5556;DHT22;2801;50.972;7.856;2024-02-16T08:49:49;11.70;99.90
5556;DHT22;2801;50.972;7.856;2024-02-16T08:52:16;11.80;99.90
5556;DHT22;2801;50.972;7.856;2024-02-16T08:54:43;11.90;99.90
5556;DHT22;2801;50.972;7.856;2024-02-16T08:57:11;12.00;99.90
5556;DHT22;2801;50.972;7.856;2024-02-16T08:59:38;12.20;99.90
5556;DHT22;2801;50.972;7.856;2024-02-16T09:02:06;12.30;99.90
5556;DHT22;2801;50.972;7.856;2024-02-16T09:04:33;12.50;99.90
5556;DHT22;2801;50.972;7.856;2024-02-16T09:07:00;12.70;99.90
5556;DHT22;2801;50.972;7.856;2024-02-16T09:09:28;12.90;99.90
5556;DHT22;2801;50.972;7.856;2024-02-16T09:11:55;13.10;99.90
5556;DHT22;2801;50.972;7.856;2024-02-16T09:14:22;13.20;99.90
5556;DHT22;2801;50.972;7.856;2024-02-16T09:16:49;13.30;99.90
5556;DHT22;2801;50.972;7.856;2024-02-16T09:19:20;13.70;99.90
5556;DHT22;2801;50.972;7.856;2024-02-16T09:21:48;14.30;99.90
5556;DHT22;2801;50.972;7.856;2024-02-16T09:24:24;14.90;99.90
5556;DHT22;2801;50.972;7.856;2024-02-16T09:26:57;15.10;99.90
5556;DHT22;2801;50.972;7.856;2024-02-16T09:29:24;15.00;99.90
5556;DHT22;2801;50.972;7.856;2024-02-16T09:31:52;14.90;99.90
5556;DHT22;2801;50.972;7.856;2024-02-16T09:34:19;14.80;99.90
5556;DHT22;2801;50.972;7.856;2024-02-16T09:36:46;14.70;99.90
5556;DHT22;2801;50.972;7.856;2024-02-16T09:39:13;14.50;99.90
5556;DHT22;2801;50.972;7.856;2024-02-16T09:41:51;14.30;99.90
5556;DHT22;2801;50.972;7.856;2024-02-16T09:44:22;14.10;99.90
5556;DHT22;2801;50.972;7.856;2024-02-16T09:46:50;13.80;99.90
5556;DHT22;2801;50.972;7.856;2024-02-16T09:49:20;13.70;99.90
5556;DHT22;2801;50.972;7.856;2024-02-16T09:52:02;13.60;99.90
5556;DHT22;2801;50.972;7.856;2024-02-16T09:54:32;13.50;99.90
5556;DHT22;2801;50.972;7.856;2024-02-16T09:57:01;13.40;99.90
5556;DHT22;2801;50.972;7.856;2024-02-16T09:59:31;13.30;99.90
5556;DHT22;2801;50.972;7.856;2024-02-16T10:02:03;13.20;99.90
5556;DHT22;2801;50.972;7.856;2024-02-16T10:04:31;13.10;99.90
5556;DHT22;2801;50.972;7.856;2024-02-16T10:07:03;13.10;99.90
5556;DHT22;2801;50.972;7.856;2024-02-16T10:09:38;13.00;99.90
5556;DHT22;2801;50.972;7.856;2024-02-16T10:12:08;13.00;99.90
5556;DHT22;2801;50.972;7.856;2024-02-16T10:14:36;13.00;99.90
5556;DHT22;2801;50.972;7.856;2024-02-16T10:17:05;13.00;99.90
5556;DHT22;2801;50.972;7.856;2024-02-16T10:19:34;13.10;99.90
5556;DHT22;2801;50.972;7.856;2024-02-16T10:22:12;13.20;99.90
5556;DHT22;2801;50.972;7.856;2024-02-16T10:24:40;13.30;99.90
5556;DHT22;2801;50.972;7.856;2024-02-16T10:27:17;13.50;99.90
5556;DHT22;2801;50.972;7.856;2024-02-16T10:29:47;13.60;99.90
5556;DHT22;2801;50.972;7.856;2024-02-16T10:32:17;13.80;99.90
5556;DHT22;2801;50.972;7.856;2024-02-16T10:34:47;13.90;99.90
5556;DHT22;2801;50.972;7.856;2024-02-16T10:37:16;14.00;99.90
5556;DHT22;2801;50.972;7.856;2024-02-16T10:39:45;14.00;99.90
5556;DHT22;2801;50.972;7.856;2024-02-16T10:42:14;13.90;99.90
5556;DHT22;2801;50.972;7.856;2024-02-16T10:44:43;13.70;99.90
5556;DHT22;2801;50.972;7.856;2024-02-16T10:47:11;13.60;99.90
5556;DHT22;2801;50.972;7.856;2024-02-16T10:49:38;13.60;99.90
5556;DHT22;2801;50.972;7.856;2024-02-16T10:52:06;13.60;99.90
5556;DHT22;2801;50.972;7.856;2024-02-16T10:54:34;13.60;99.90
5556;DHT22;2801;50.972;7.856;2024-02-16T10:57:11;13.70;99.90
5556;DHT22;2801;50.972;7.856;2024-02-16T10:59:41;13.60;99.90
5556;DHT22;2801;50.972;7.856;2024-02-16T11:02:10;13.70;99.90
5556;DHT22;2801;50.972;7.856;2024-02-16T11:04:38;13.80;99.90
5556;DHT22;2801;50.972;7.856;2024-02-16T11:07:17;13.90;99.90
5556;DHT22;2801;50.972;7.856;2024-02-16T11:09:46;14.00;99.90
5556;DHT22;2801;50.972;7.856;2024-02-16T11:12:15;14.10;99.90
5556;DHT22;2801;50.972;7.856;2024-02-16T11:14:45;14.20;99.90
5556;DHT22;2801;50.972;7.856;2024-02-16T11:17:15;14.30;99.90
5556;DHT22;2801;50.972;7.856;2024-02-16T11:19:47;14.30;99.90
5556;DHT22;2801;50.972;7.856;2024-02-16T11:22:18;14.40;99.90
5556;DHT22;2801;50.972;7.856;2024-02-16T11:24:49;14.30;99.90
5556;DHT22;2801;50.972;7.856;2024-02-16T11:27:20;14.30;99.90
5556;DHT22;2801;50.972;7.856;2024-02-16T11:29:49;14.20;99.90
5556;DHT22;2801;50.972;7.856;2024-02-16T11:32:18;14.10;99.90
5556;DHT22;2801;50.972;7.856;2024-02-16T11:34:47;14.10;99.90
5556;DHT22;2801;50.972;7.856;2024-02-16T11:37:16;14.00;99.90
5556;DHT22;2801;50.972;7.856;2024-02-16T11:39:43;14.00;99.90
5556;DHT22;2801;50.972;7.856;2024-02-16T11:42:13;14.10;99.90
5556;DHT22;2801;50.972;7.856;2024-02-16T11:44:53;14.10;99.90
5556;DHT22;2801;50.972;7.856;2024-02-16T11:47:24;14.20;99.90
5556;DHT22;2801;50.972;7.856;2024-02-16T11:50:08;14.30;99.90
5556;DHT22;2801;50.972;7.856;2024-02-16T11:52:40;14.40;99.90
5556;DHT22;2801;50.972;7.856;2024-02-16T11:55:08;14.50;99.90
5556;DHT22;2801;50.972;7.856;2024-02-16T11:57:36;14.70;99.90
5556;DHT22;2801;50.972;7.856;2024-02-16T12:00:05;14.70;99.90
5556;DHT22;2801;50.972;7.856;2024-02-16T12:02:38;14.70;99.90
5556;DHT22;2801;50.972;7.856;2024-02-16T12:05:05;14.70;99.90
5556;DHT22;2801;50.972;7.856;2024-02-16T12:07:36;14.40;99.90
5556;DHT22;2801;50.972;7.856;2024-02-16T12:10:06;14.30;99.90
5556;DHT22;2801;50.972;7.856;2024-02-16T12:12:34;14.10;99.90
5556;DHT22;2801;50.972;7.856;2024-02-16T12:15:01;13.80;99.90
5556;DHT22;2801;50.972;7.856;2024-02-16T12:17:31;13.60;99.90
5556;DHT22;2801;50.972;7.856;2024-02-16T12:19:58;13.40;99.90
5556;DHT22;2801;50.972;7.856;2024-02-16T12:22:25;13.30;99.90
5556;DHT22;2801;50.972;7.856;2024-02-16T12:24:52;13.10;99.90
5556;DHT22;2801;50.972;7.856;2024-02-16T12:27:19;13.10;99.90
5556;DHT22;2801;50.972;7.856;2024-02-16T12:29:46;13.10;99.90
5556;DHT22;2801;50.972;7.856;2024-02-16T12:32:13;13.00;99.90
5556;DHT22;2801;50.972;7.856;2024-02-16T12:34:46;13.10;99.90
5556;DHT22;2801;50.972;7.856;2024-02-16T12:37:14;13.20;99.90
5556;DHT22;2801;50.972;7.856;2024-02-16T12:39:41;13.20;99.90
5556;DHT22;2801;50.972;7.856;2024-02-16T12:42:08;13.20;99.90
5556;DHT22;2801;50.972;7.856;2024-02-16T12:44:35;13.30;99.90
5556;DHT22;2801;50.972;7.856;2024-02-16T12:47:03;13.30;99.90
5556;DHT22;2801;50.972;7.856;2024-02-16T12:49:30;13.30;99.90
5556;DHT22;2801;50.972;7.856;2024-02-16T12:51:57;13.40;99.90
5556;DHT22;2801;50.972;7.856;2024-02-16T12:54:24;13.40;99.90
5556;DHT22;2801;50.972;7.856;2024-02-16T12:56:51;13.40;99.90
5556;DHT22;2801;50.972;7.856;2024-02-16T12:59:20;13.50;99.90
5556;DHT22;2801;50.972;7.856;2024-02-16T13:01:47;13.50;99.90
5556;DHT22;2801;50.972;7.856;2024-02-16T13:04:14;13.50;99.90
5556;DHT22;2801;50.972;7.856;2024-02-16T13:06:48;13.60;99.90
5556;DHT22;2801;50.972;7.856;2024-02-16T13:09:17;13.70;99.90
5556;DHT22;2801;50.972;7.856;2024-02-16T13:11:44;13.70;99.90
5556;DHT22;2801;50.972;7.856;2024-02-16T13:14:12;13.70;99.90
5556;DHT22;2801;50.972;7.856;2024-02-16T13:16:39;13.60;99.90
5556;DHT22;2801;50.972;7.856;2024-02-16T13:19:06;13.60;99.90
5556;DHT22;2801;50.972;7.856;2024-02-16T13:21:33;13.70;99.90
5556;DHT22;2801;50.972;7.856;2024-02-16T13:24:00;13.60;99.90
5556;DHT22;2801;50.972;7.856;2024-02-16T13:26:27;13.60;99.90
5556;DHT22;2801;50.972;7.856;2024-02-16T13:28:56;13.50;99.90
5556;DHT22;2801;50.972;7.856;2024-02-16T13:31:24;13.40;99.90
5556;DHT22;2801;50.972;7.856;2024-02-16T13:33:54;13.40;99.90
5556;DHT22;2801;50.972;7.856;2024-02-16T13:36:21;13.30;99.90
5556;DHT22;2801;50.972;7.856;2024-02-16T13:38:48;13.20;99.90
5556;DHT22;2801;50.972;7.856;2024-02-16T13:41:16;13.10;99.90
5556;DHT22;2801;50.972;7.856;2024-02-16T13:43:46;13.00;99.90
5556;DHT22;2801;50.972;7.856;2024-02-16T13:46:13;13.00;99.90
5556;DHT22;2801;50.972;7.856;2024-02-16T13:48:41;12.90;99.90
5556;DHT22;2801;50.972;7.856;2024-02-16T13:51:09;12.80;99.90
5556;DHT22;2801;50.972;7.856;2024-02-16T13:53:36;12.80;99.90
5556;DHT22;2801;50.972;7.856;2024-02-16T13:56:04;12.70;99.90
5556;DHT22;2801;50.972;7.856;2024-02-16T13:58:32;12.70;99.90
5556;DHT22;2801;50.972;7.856;2024-02-16T14:01:01;12.70;99.90
5556;DHT22;2801;50.972;7.856;2024-02-16T14:03:33;12.60;99.90
5556;DHT22;2801;50.972;7.856;2024-02-16T14:06:00;12.60;99.90
5556;DHT22;2801;50.972;7.856;2024-02-16T14:08:28;12.50;99.90
5556;DHT22;2801;50.972;7.856;2024-02-16T14:10:55;12.50;99.90
5556;DHT22;2801;50.972;7.856;2024-02-16T14:13:22;12.50;99.90
5556;DHT22;2801;50.972;7.856;2024-02-16T14:15:51;12.40;99.90
5556;DHT22;2801;50.972;7.856;2024-02-16T14:18:19;12.30;99.90
5556;DHT22;2801;50.972;7.856;2024-02-16T14:21:00;12.10;99.90
5556;DHT22;2801;50.972;7.856;2024-02-16T14:23:31;12.10;99.90
5556;DHT22;2801;50.972;7.856;2024-02-16T14:25:59;12.00;99.90
5556;DHT22;2801;50.972;7.856;2024-02-16T14:28:26;12.00;99.90
5556;DHT22;2801;50.972;7.856;2024-02-16T14:30:53;11.90;99.90
5556;DHT22;2801;50.972;7.856;2024-02-16T14:33:21;11.80;99.90
5556;DHT22;2801;50.972;7.856;2024-02-16T14:36:00;11.80;99.90
5556;DHT22;2801;50.972;7.856;2024-02-16T14:38:28;11.80;99.90
5556;DHT22;2801;50.972;7.856;2024-02-16T14:40:55;11.80;99.90
5556;DHT22;2801;50.972;7.856;2024-02-16T14:43:22;11.70;99.90
5556;DHT22;2801;50.972;7.856;2024-02-16T14:45:50;11.70;99.90
5556;DHT22;2801;50.972;7.856;2024-02-16T14:48:17;11.60;99.90
5556;DHT22;2801;50.972;7.856;2024-02-16T14:50:44;11.60;99.90
5556;DHT22;2801;50.972;7.856;2024-02-16T14:53:11;11.60;99.90
5556;DHT22;2801;50.972;7.856;2024-02-16T14:55:38;11.50;99.90
5556;DHT22;2801;50.972;7.856;2024-02-16T14:58:05;11.50;99.90
5556;DHT22;2801;50.972;7.856;2024-02-16T15:00:34;11.50;99.90
5556;DHT22;2801;50.972;7.856;2024-02-16T15:03:02;11.50;99.90
5556;DHT22;2801;50.972;7.856;2024-02-16T15:05:30;11.50;99.90
5556;DHT22;2801;50.972;7.856;2024-02-16T15:07:57;11.40;99.90
5556;DHT22;2801;50.972;7.856;2024-02-16T15:10:24;11.30;99.90
5556;DHT22;2801;50.972;7.856;2024-02-16T15:12:51;11.40;99.90
5556;DHT22;2801;50.972;7.856;2024-02-16T15:15:18;11.30;99.90
5556;DHT22;2801;50.972;7.856;2024-02-16T15:17:45;11.40;99.90
5556;DHT22;2801;50.972;7.856;2024-02-16T15:20:14;11.40;99.90
5556;DHT22;2801;50.972;7.856;2024-02-16T15:22:41;11.40;99.90
5556;DHT22;2801;50.972;7.856;2024-02-16T15:25:20;11.40;99.90
5556;DHT22;2801;50.972;7.856;2024-02-16T15:27:49;11.30;99.90
5556;DHT22;2801;50.972;7.856;2024-02-16T15:30:19;11.30;99.90
5556;DHT22;2801;50.972;7.856;2024-02-16T15:32:47;11.30;99.90
5556;DHT22;2801;50.972;7.856;2024-02-16T15:35:18;11.30;99.90
5556;DHT22;2801;50.972;7.856;2024-02-16T15:37:45;11.30;99.90
5556;DHT22;2801;50.972;7.856;2024-02-16T15:40:12;11.30;99.90
5556;DHT22;2801;50.972;7.856;2024-02-16T15:42:40;11.30;99.90
5556;DHT22;2801;50.972;7.856;2024-02-16T15:45:09;11.30;99.90
5556;DHT22;2801;50.972;7.856;2024-02-16T15:47:38;11.40;99.90
5556;DHT22;2801;50.972;7.856;2024-02-16T15:50:06;11.30;99.90
5556;DHT22;2801;50.972;7.856;2024-02-16T15:52:33;11.30;99.90
5556;DHT22;2801;50.972;7.856;2024-02-16T15:55:00;11.30;99.90
5556;DHT22;2801;50.972;7.856;2024-02-16T15:57:27;11.30;99.90
5556;DHT22;2801;50.972;7.856;2024-02-16T15:59:54;11.30;99.90
5556;DHT22;2801;50.972;7.856;2024-02-16T16:02:21;11.30;99.90
5556;DHT22;2801;50.972;7.856;2024-02-16T16:04:48;11.30;99.90
5556;DHT22;2801;50.972;7.856;2024-02-16T16:07:16;11.20;99.90
5556;DHT22;2801;50.972;7.856;2024-02-16T16:09:43;11.20;99.90
5556;DHT22;2801;50.972;7.856;2024-02-16T16:12:10;11.20;99.90
5556;DHT22;2801;50.972;7.856;2024-02-16T16:14:37;11.20;99.90
5556;DHT22;2801;50.972;7.856;2024-02-16T16:17:04;11.20;99.90